Terminal Aerodrome Forecast
Issued by NWS

Home | Current Version | Previous Version | Text Only | Print | Product List | Glossary On
Versions: 1 2 3 4 5 6 7 8 9 10 11 12 13 14 15 16 17 18 19
713
FTUS42 KKEY 181726
TAFMTH
TAF
KMTH 181726Z 1818/1918 08008KT P6SM VCSH SCT025 SCT060 BKN100
     FM190000 08007KT P6SM SCT020 SCT060=

USA.gov is the U.S. government's official web portal to all federal, state and local government web resources and services.